Time;durP1;ratioP1;P1;durP2;ratioP2;P2;SDS_P1;SDS_P2;PMS_P1;PMS_P2;Temp;Humidity;BMP_temperature;BMP_pressure;BME280_temperature;BME280_humidity;BME280_pressure;Samples;Min_cycle;Max_cycle;Signal;HPM_P1;HPM_P2
2023/06/24 00:01:16;;;;;;;13.82;11.77;;;;;;;-146.58;100.00;69501.63;5031251;28;20045;-65
2023/06/24 00:03:46;;;;;;;13.20;10.13;;;;;;;-146.58;100.00;69501.63;5029751;28;20037;-65
2023/06/24 00:06:18;;;;;;;11.10;8.63;;;;;;;-146.58;100.00;69501.63;5031259;28;20014;-65
2023/06/24 00:08:44;;;;;;;10.68;9.05;;;;;;;-146.58;100.00;69501.63;5029735;28;20052;-65
2023/06/24 00:11:10;;;;;;;11.48;10.35;;;;;;;-146.58;100.00;69501.63;5031254;28;20026;-66
2023/06/24 00:13:36;;;;;;;11.35;10.35;;;;;;;-146.58;100.00;69501.63;5029329;28;20098;-66
2023/06/24 00:16:01;;;;;;;11.85;10.43;;;;;;;-146.58;100.00;69501.63;5030727;28;20481;-66
2023/06/24 00:18:28;;;;;;;12.32;10.30;;;;;;;-146.58;100.00;69501.63;5029417;28;20116;-66
2023/06/24 00:20:54;;;;;;;12.40;9.85;;;;;;;-146.58;100.00;69501.63;5030541;28;20041;-66
2023/06/24 00:23:25;;;;;;;10.15;9.05;;;;;;;-146.58;100.00;69501.63;5029382;28;20041;-66
2023/06/24 00:25:52;;;;;;;10.02;8.27;;;;;;;-146.58;100.00;69501.63;5030828;28;20514;-67
2023/06/24 00:28:17;;;;;;;11.05;9.93;;;;;;;-146.58;100.00;69501.63;5029135;28;20056;-67
2023/06/24 00:30:42;;;;;;;9.98;8.80;;;;;;;-146.58;100.00;69501.63;5030839;28;20025;-67
2023/06/24 00:33:11;;;;;;;10.20;9.20;;;;;;;-146.58;100.00;69501.63;5029329;28;20032;-66
2023/06/24 00:35:39;;;;;;;15.15;9.52;;;;;;;-146.58;100.00;69501.63;5029563;28;20702;-66
2023/06/24 00:38:05;;;;;;;13.73;10.38;;;;;;;-146.58;100.00;69501.63;5029201;28;20091;-67
2023/06/24 00:40:31;;;;;;;14.98;11.60;;;;;;;-146.58;100.00;69501.63;5030876;28;20014;-67
2023/06/24 00:42:56;;;;;;;12.63;9.18;;;;;;;-146.58;100.00;69501.63;5028867;28;20454;-66
2023/06/24 00:45:22;;;;;;;11.57;10.10;;;;;;;-146.58;100.00;69501.63;5030882;28;20534;-67
2023/06/24 00:47:48;;;;;;;15.20;10.88;;;;;;;-146.58;100.00;69501.63;5030304;28;20091;-67
2023/06/24 00:50:15;;;;;;;19.60;11.23;;;;;;;-146.58;100.00;69501.63;5028874;28;20046;-67
2023/06/24 00:52:42;;;;;;;16.20;12.35;;;;;;;-146.58;100.00;69501.63;5030843;28;20036;-67
2023/06/24 00:55:14;;;;;;;15.15;12.93;;;;;;;-146.58;100.00;69501.63;5028857;28;20047;-67
2023/06/24 00:57:42;;;;;;;19.05;12.65;;;;;;;-146.58;100.00;69501.63;5030464;28;20053;-67
2023/06/24 01:00:11;;;;;;;15.00;11.90;;;;;;;-146.58;100.00;69501.63;5028962;28;20045;-67
2023/06/24 01:02:37;;;;;;;;;;;;;;;-146.58;100.00;69501.63;5030761;28;21040;-67
2023/06/24 01:05:03;;;;;;;13.82;10.80;;;;;;;-146.58;100.00;69501.63;5028471;28;19913;-67
2023/06/24 01:07:31;;;;;;;13.93;12.18;;;;;;;-146.58;100.00;69501.63;5030611;28;20439;-67
2023/06/24 01:09:57;;;;;;;16.27;13.50;;;;;;;-146.58;100.00;69501.63;5028910;28;20041;-67
2023/06/24 01:12:22;;;;;;;15.00;13.50;;;;;;;-146.58;100.00;69501.63;5030062;28;20037;-68
2023/06/24 01:14:47;;;;;;;14.00;12.52;;;;;;;-146.58;100.00;69501.63;5027202;28;20539;-68
2023/06/24 01:17:19;;;;;;;13.05;11.75;;;;;;;-146.58;100.00;69501.63;5030518;28;20036;-65
2023/06/24 01:20:04;;;;;;;18.92;14.40;;;;;;;-146.58;100.00;69501.63;5028208;28;20037;-64
2023/06/24 01:23:07;;;;;;;14.75;13.35;;;;;;;-146.58;100.00;69501.63;5030527;28;20496;-64
2023/06/24 01:26:07;;;;;;;15.10;13.50;;;;;;;-146.58;100.00;69501.63;5028877;28;20046;-64
2023/06/24 01:29:07;;;;;;;13.90;12.48;;;;;;;-146.58;100.00;69501.63;5028949;28;20413;-64
2023/06/24 01:31:39;;;;;;;14.38;12.98;;;;;;;-146.58;100.00;69501.63;5030167;28;20738;-65
2023/06/24 01:34:22;;;;;;;13.27;11.90;;;;;;;-146.58;100.00;69501.63;5028319;28;20125;-64
2023/06/24 01:37:00;;;;;;;13.02;10.98;;;;;;;-146.58;100.00;69501.63;5030071;28;20064;-64
2023/06/24 01:39:31;;;;;;;15.20;13.38;;;;;;;-146.58;100.00;69501.63;5028903;28;20064;-64
2023/06/24 01:42:06;;;;;;;16.08;13.90;;;;;;;-146.58;100.00;69501.63;5029465;28;20029;-64
2023/06/24 01:44:33;;;;;;;15.20;11.65;;;;;;;-146.58;100.00;69501.63;5028969;28;20072;-64
2023/06/24 01:46:59;;;;;;;16.65;13.55;;;;;;;-146.58;100.00;69501.63;5032436;28;20030;-64
2023/06/24 01:49:28;;;;;;;13.57;12.13;;;;;;;-146.58;100.00;69501.63;5031956;28;20041;-64
2023/06/24 01:51:58;;;;;;;12.52;11.18;;;;;;;-146.58;100.00;69501.63;5033615;28;20108;-64
2023/06/24 01:54:26;;;;;;;15.32;13.43;;;;;;;-146.58;100.00;69501.63;5032274;28;20048;-64
2023/06/24 01:56:54;;;;;;;14.95;13.23;;;;;;;-146.58;100.00;69501.63;5033216;28;20079;-64
2023/06/24 01:59:21;;;;;;;13.95;12.63;;;;;;;-146.58;100.00;69501.63;5032342;28;20116;-64
2023/06/24 02:01:47;;;;;;;21.27;14.43;;;;;;;-146.58;100.00;69501.63;5033179;28;20033;-64
2023/06/24 02:04:14;;;;;;;15.90;12.75;;;;;;;-146.58;100.00;69501.63;5031700;28;20394;-64
2023/06/24 02:06:42;;;;;;;10.95;9.82;;;;;;;-146.58;100.00;69501.63;5033521;28;20112;-64
2023/06/24 02:09:09;;;;;;;13.57;11.73;;;;;;;-146.58;100.00;69501.63;5031722;28;20037;-64
2023/06/24 02:11:36;;;;;;;13.75;12.32;;;;;;;-146.58;100.00;69501.63;5032952;28;20060;-64
2023/06/24 02:14:04;;;;;;;16.20;11.50;;;;;;;-146.58;100.00;69501.63;5031811;28;20095;-64
2023/06/24 02:16:31;;;;;;;13.13;11.87;;;;;;;-146.58;100.00;69501.63;5033121;28;20026;-64
2023/06/24 02:18:57;;;;;;;14.23;11.73;;;;;;;-146.58;100.00;69501.63;5031211;28;20103;-65
2023/06/24 02:21:25;;;;;;;13.77;12.32;;;;;;;-146.58;100.00;69501.63;5032183;28;20021;-65
2023/06/24 02:23:51;;;;;;;15.38;12.13;;;;;;;-146.58;100.00;69501.63;5031234;28;20033;-65
2023/06/24 02:26:18;;;;;;;16.60;13.75;;;;;;;-146.58;100.00;69501.63;5032784;28;20544;-65
2023/06/24 02:28:48;;;;;;;20.48;12.57;;;;;;;-146.58;100.00;69501.63;5031744;28;20041;-65
2023/06/24 02:31:14;;;;;;;21.50;14.90;;;;;;;-146.58;100.00;69501.63;5033037;28;20107;-67
2023/06/24 02:33:40;;;;;;;16.63;15.13;;;;;;;-146.58;100.00;69501.63;5031401;28;20033;-67
2023/06/24 02:36:05;;;;;;;14.35;12.88;;;;;;;-146.58;100.00;69501.63;5032649;28;20025;-67
2023/06/24 02:38:31;;;;;;;12.02;10.82;;;;;;;-146.58;100.00;69501.63;5031218;28;20118;-71
2023/06/24 02:40:57;;;;;;;14.00;12.43;;;;;;;-146.58;100.00;69501.63;5032416;28;20102;-71
2023/06/24 02:43:23;;;;;;;13.90;12.45;;;;;;;-146.58;100.00;69501.63;5031633;28;20060;-71
2023/06/24 02:45:50;;;;;;;15.15;13.52;;;;;;;-146.58;100.00;69501.63;5032445;28;20030;-71
2023/06/24 02:48:17;;;;;;;16.52;12.32;;;;;;;-146.58;100.00;69501.63;5031073;28;20045;-69
2023/06/24 02:50:44;;;;;;;15.98;13.43;;;;;;;-146.58;100.00;69501.63;5032875;28;20156;-69
2023/06/24 02:53:15;;;;;;;13.30;11.70;;;;;;;-146.58;100.00;69501.63;5031107;28;20025;-70
2023/06/24 02:55:42;;;;;;;17.45;12.68;;;;;;;-146.58;100.00;69501.63;5031987;28;20032;-71
2023/06/24 02:58:07;;;;;;;14.20;12.70;;;;;;;-146.58;100.00;69501.63;5030041;28;20140;-71
2023/06/24 03:00:34;;;;;;;12.75;11.55;;;;;;;-146.58;100.00;69501.63;5032481;28;20026;-70
2023/06/24 03:03:01;;;;;;;34.75;12.52;;;;;;;-146.58;100.00;69501.63;5030334;28;20063;-69
2023/06/24 03:05:27;;;;;;;13.68;11.65;;;;;;;-146.58;100.00;69501.63;5032434;28;20032;-69
2023/06/24 03:07:53;;;;;;;13.02;11.73;;;;;;;-146.58;100.00;69501.63;5031805;28;20037;-69
2023/06/24 03:10:18;;;;;;;15.15;12.93;;;;;;;-146.58;100.00;69501.63;5030561;28;20124;-69
2023/06/24 03:12:44;;;;;;;15.38;13.85;;;;;;;-146.58;100.00;69501.63;5032416;28;20041;-69
2023/06/24 03:15:09;;;;;;;15.32;13.82;;;;;;;-146.58;100.00;69501.63;5030283;28;20038;-67
2023/06/24 03:17:35;;;;;;;18.85;14.07;;;;;;;-146.58;100.00;69501.63;5031575;28;20037;-67
2023/06/24 03:20:01;;;;;;;14.85;13.13;;;;;;;-146.58;100.00;69501.63;5030388;28;20095;-67
2023/06/24 03:22:26;;;;;;;18.58;13.02;;;;;;;-146.58;100.00;69501.63;5032222;28;20025;-67
2023/06/24 03:24:52;;;;;;;15.52;12.25;;;;;;;-146.58;100.00;69501.63;5030158;28;20034;-67
2023/06/24 03:27:18;;;;;;;15.27;13.45;;;;;;;-146.58;100.00;69501.63;5032079;28;20453;-66
2023/06/24 03:29:44;;;;;;;14.55;12.18;;;;;;;-146.58;100.00;69501.63;5030361;28;20071;-62
2023/06/24 03:32:09;;;;;;;15.55;13.57;;;;;;;-146.58;100.00;69501.63;5031289;28;20036;-66
2023/06/24 03:34:35;;;;;;;18.73;15.18;;;;;;;-146.58;100.00;69501.63;5030482;28;20084;-66
2023/06/24 03:37:00;;;;;;;16.75;14.95;;;;;;;-146.58;100.00;69501.63;5031555;28;20021;-65
2023/06/24 03:39:25;;;;;;;16.63;14.13;;;;;;;-146.58;100.00;69501.63;5029906;28;20067;-65
2023/06/24 03:41:51;;;;;;;17.25;15.00;;;;;;;-146.58;100.00;69501.63;5031341;28;20030;-65
2023/06/24 03:44:16;;;;;;;15.40;13.90;;;;;;;-146.58;100.00;69501.63;5030266;28;20048;-65
2023/06/24 03:46:41;;;;;;;15.48;13.88;;;;;;;-146.58;100.00;69501.63;5030050;28;20021;-65
2023/06/24 03:49:07;;;;;;;18.20;14.50;;;;;;;-146.58;100.00;69501.63;5029832;28;20042;-65
2023/06/24 03:51:32;;;;;;;18.45;14.75;;;;;;;-146.58;100.00;69501.63;5031589;28;20053;-65
2023/06/24 03:53:57;;;;;;;16.70;12.27;;;;;;;-146.58;100.00;69501.63;5029052;28;20500;-65
2023/06/24 03:56:23;;;;;;;14.77;13.27;;;;;;;-146.58;100.00;69501.63;5031413;28;20018;-65
2023/06/24 03:58:48;;;;;;;15.50;14.00;;;;;;;-146.58;100.00;69501.63;5029777;28;20492;-66
2023/06/24 04:01:14;;;;;;;20.42;15.02;;;;;;;-146.58;100.00;69501.63;5031007;28;20032;-66
2023/06/24 04:03:39;;;;;;;19.38;13.68;;;;;;;-146.58;100.00;69501.63;5029781;28;20050;-66
2023/06/24 04:06:04;;;;;;;17.25;15.45;;;;;;;-146.58;100.00;69501.63;5031114;28;20029;-66
2023/06/24 04:08:30;;;;;;;20.88;15.23;;;;;;;-146.58;100.00;69501.63;5029471;28;20042;-66
2023/06/24 04:10:56;;;;;;;15.85;14.18;;;;;;;-146.58;100.00;69501.63;5030979;28;20021;-65
2023/06/24 04:13:21;;;;;;;16.67;14.98;;;;;;;-146.58;100.00;69501.63;5029463;28;20117;-63
2023/06/24 04:15:47;;;;;;;17.73;15.15;;;;;;;-146.58;100.00;69501.63;5030357;28;20029;-64
2023/06/24 04:18:12;;;;;;;17.67;14.65;;;;;;;-146.58;100.00;69501.63;5029461;28;20055;-64
2023/06/24 04:20:37;;;;;;;27.42;14.02;;;;;;;-146.58;100.00;69501.63;5029591;28;20025;-63
2023/06/24 04:23:05;;;;;;;17.05;15.23;;;;;;;-146.58;100.00;69501.63;5028273;28;20026;-64
2023/06/24 04:25:31;;;;;;;15.68;14.00;;;;;;;-146.58;100.00;69501.63;5031034;28;20033;-64
2023/06/24 04:27:57;;;;;;;19.25;13.60;;;;;;;-146.58;100.00;69501.63;5029293;28;20040;-64
2023/06/24 04:30:22;;;;;;;17.42;13.90;;;;;;;-146.58;100.00;69501.63;5030698;28;20419;-64
2023/06/24 04:32:48;;;;;;;19.65;16.05;;;;;;;-146.58;100.00;69501.63;5030626;28;20136;-64
2023/06/24 04:35:13;;;;;;;20.52;13.90;;;;;;;-146.58;100.00;69501.63;5029490;28;20107;-64
2023/06/24 04:37:38;;;;;;;17.05;14.25;;;;;;;-146.58;100.00;69501.63;5030926;28;20067;-64
2023/06/24 04:40:05;;;;;;;17.13;13.63;;;;;;;-146.58;100.00;69501.63;5028551;28;20516;-64
2023/06/24 04:42:31;;;;;;;16.50;14.80;;;;;;;-146.58;100.00;69501.63;5030471;28;20423;-67
2023/06/24 04:44:56;;;;;;;19.88;15.05;;;;;;;-146.58;100.00;69501.63;5029133;28;20038;-67
2023/06/24 04:47:21;;;;;;;16.55;14.65;;;;;;;-146.58;100.00;69501.63;5029856;28;20032;-67
2023/06/24 04:49:47;;;;;;;20.70;17.02;;;;;;;-146.58;100.00;69501.63;5028895;28;20037;-66
2023/06/24 04:52:12;;;;;;;19.15;17.23;;;;;;;-146.58;100.00;69501.63;5030600;28;20380;-67
2023/06/24 04:54:38;;;;;;;18.63;16.13;;;;;;;-146.58;100.00;69501.63;5028875;28;20041;-67
2023/06/24 04:57:23;;;;;;;20.45;17.02;;;;;;;-146.58;100.00;69501.63;5028248;28;20515;-68
2023/06/24 04:59:48;;;;;;;20.90;18.70;;;;;;;-146.58;100.00;69501.63;5018604;28;20041;-69
2023/06/24 05:02:14;;;;;;;18.70;16.83;;;;;;;-146.58;100.00;69501.63;5029564;28;20115;-69
2023/06/24 05:04:39;;;;;;;24.45;21.58;;;;;;;-146.58;100.00;69501.63;5027691;28;20042;-69
2023/06/24 05:07:04;;;;;;;22.42;20.08;;;;;;;-146.58;100.00;69501.63;5028338;28;20036;-69
2023/06/24 05:09:30;;;;;;;19.50;17.58;;;;;;;-146.58;100.00;69501.63;5028329;28;20042;-69
2023/06/24 05:11:55;;;;;;;36.00;20.20;;;;;;;-146.58;100.00;69501.63;5029518;28;20584;-69
2023/06/24 05:14:20;;;;;;;22.60;16.95;;;;;;;-146.58;100.00;69501.63;5027376;28;20052;-69
2023/06/24 05:16:47;;;;;;;19.83;17.42;;;;;;;-146.58;100.00;69501.63;5029046;28;20420;-69
2023/06/24 05:19:12;;;;;;;20.40;16.20;;;;;;;-146.58;100.00;69501.63;5028030;28;20034;-69
2023/06/24 05:21:38;;;;;;;24.10;17.48;;;;;;;-146.58;100.00;69501.63;5030607;28;20029;-67
2023/06/24 05:24:03;;;;;;;27.17;19.85;;;;;;;-146.58;100.00;69501.63;5031442;28;20052;-67
2023/06/24 05:26:28;;;;;;;20.08;18.05;;;;;;;-146.58;100.00;69501.63;5031738;28;20041;-66
2023/06/24 05:28:54;;;;;;;23.95;21.10;;;;;;;-146.58;100.00;69501.63;5030614;28;20037;-66
2023/06/24 05:31:19;;;;;;;22.80;18.40;;;;;;;-146.58;100.00;69501.63;5033107;28;20526;-66
2023/06/24 05:33:45;;;;;;;19.77;17.75;;;;;;;-146.58;100.00;69501.63;5031976;28;20033;-66
2023/06/24 05:36:10;;;;;;;25.25;19.52;;;;;;;-146.58;100.00;69501.63;5032416;28;20025;-66
2023/06/24 05:38:35;;;;;;;21.17;18.67;;;;;;;-146.58;100.00;69501.63;5027733;28;20459;-63
2023/06/24 05:41:02;;;;;;;20.83;16.50;;;;;;;-146.58;100.00;69501.63;5030710;28;20071;-64
2023/06/24 05:43:27;;;;;;;18.98;15.68;;;;;;;-146.58;100.00;69501.63;5029686;28;20033;-64
2023/06/24 05:45:53;;;;;;;18.27;15.75;;;;;;;-146.58;100.00;69501.63;5032814;28;20036;-65
2023/06/24 05:48:18;;;;;;;18.80;16.77;;;;;;;-146.58;100.00;69501.63;5031877;28;20037;-64
2023/06/24 05:50:43;;;;;;;19.25;14.13;;;;;;;-146.58;100.00;69501.63;5030340;28;20057;-65
2023/06/24 05:53:09;;;;;;;16.45;14.75;;;;;;;-146.58;100.00;69501.63;5030936;28;20033;-65
2023/06/24 05:55:34;;;;;;;14.63;13.13;;;;;;;-146.58;100.00;69501.63;5032295;28;20025;-65
2023/06/24 05:58:00;;;;;;;15.40;13.80;;;;;;;-146.58;100.00;69501.63;5030513;28;20067;-64
2023/06/24 06:00:25;;;;;;;18.25;14.70;;;;;;;-146.58;100.00;69501.63;5032899;28;20028;-65
2023/06/24 06:02:50;;;;;;;16.65;14.93;;;;;;;-146.58;100.00;69501.63;5032883;28;20103;-65
2023/06/24 06:05:16;;;;;;;17.67;15.77;;;;;;;-146.58;100.00;69501.63;5027290;28;20045;-65
2023/06/24 06:07:42;;;;;;;18.52;15.95;;;;;;;-146.58;100.00;69501.63;5030923;28;20025;-65
2023/06/24 06:10:08;;;;;;;18.02;13.68;;;;;;;-146.58;100.00;69501.63;5030906;28;20061;-64
2023/06/24 06:12:34;;;;;;;20.45;15.35;;;;;;;-146.58;100.00;69501.63;5031910;28;20068;-65
2023/06/24 06:14:59;;;;;;;17.42;15.63;;;;;;;-146.58;100.00;69501.63;5030696;28;20520;-64
2023/06/24 06:17:24;;;;;;;17.98;15.65;;;;;;;-146.58;100.00;69501.63;5032983;28;20067;-64
2023/06/24 06:19:50;;;;;;;16.35;12.82;;;;;;;-146.58;100.00;69501.63;5030044;28;20033;-65
2023/06/24 06:22:15;;;;;;;18.85;15.23;;;;;;;-146.58;100.00;69501.63;5031822;28;20032;-65
2023/06/24 06:24:40;;;;;;;24.58;15.40;;;;;;;-146.58;100.00;69501.63;5031218;28;20040;-65
2023/06/24 06:27:10;;;;;;;17.40;14.10;;;;;;;-146.58;100.00;69501.63;5031512;28;20482;-65
2023/06/24 06:29:35;;;;;;;17.02;13.50;;;;;;;-146.58;100.00;69501.63;5029530;28;20476;-64
2023/06/24 06:32:01;;;;;;;15.73;12.82;;;;;;;-146.58;100.00;69501.63;5030222;28;20041;-65
2023/06/24 06:34:26;;;;;;;18.60;14.95;;;;;;;-146.58;100.00;69501.63;5027276;28;21351;-65
2023/06/24 06:36:51;;;;;;;18.50;13.43;;;;;;;-146.58;100.00;69501.63;5027644;28;20025;-65
2023/06/24 06:39:17;;;;;;;20.13;12.98;;;;;;;-146.58;100.00;69501.63;5029155;28;20045;-65
2023/06/24 06:41:42;;;;;;;15.35;12.90;;;;;;;-146.58;100.00;69501.63;5031761;28;20117;-65
2023/06/24 06:44:07;;;;;;;17.15;12.75;;;;;;;-146.58;100.00;69501.63;5029698;28;20427;-65
2023/06/24 06:46:33;;;;;;;13.02;10.85;;;;;;;-146.58;100.00;69501.63;5030293;28;20036;-65
2023/06/24 06:48:59;;;;;;;15.93;13.15;;;;;;;-146.58;100.00;69501.63;5030122;28;20045;-65
2023/06/24 06:51:25;;;;;;;20.80;13.82;;;;;;;-146.58;100.00;69501.63;5032038;28;20075;-65
2023/06/24 06:53:51;;;;;;;18.83;14.65;;;;;;;-146.58;100.00;69501.63;5029074;28;20420;-66
2023/06/24 06:56:18;;;;;;;20.08;15.25;;;;;;;-146.58;100.00;69501.63;5031973;28;20032;-66
2023/06/24 06:58:43;;;;;;;14.48;12.00;;;;;;;-146.58;100.00;69501.63;5030242;28;20086;-65
2023/06/24 07:01:09;;;;;;;22.17;14.23;;;;;;;-146.58;100.00;69501.63;5031928;28;20026;-66
2023/06/24 07:03:34;;;;;;;17.35;14.35;;;;;;;-146.58;100.00;69501.63;5030524;28;20052;-66
2023/06/24 07:05:59;;;;;;;17.20;13.10;;;;;;;-146.58;100.00;69501.63;5031692;28;20026;-65
2023/06/24 07:08:25;;;;;;;16.25;13.43;;;;;;;-146.58;100.00;69501.63;5030214;28;20045;-66
2023/06/24 07:10:50;;;;;;;16.48;12.30;;;;;;;-146.58;100.00;69501.63;5031943;28;20025;-65
2023/06/24 07:13:15;;;;;;;16.30;13.77;;;;;;;-146.58;100.00;69501.63;5030219;28;20054;-66
2023/06/24 07:15:41;;;;;;;15.48;13.88;;;;;;;-146.58;100.00;69501.63;5031751;28;20032;-66
2023/06/24 07:18:06;;;;;;;16.27;13.13;;;;;;;-146.58;100.00;69501.63;5030232;28;20021;-66
2023/06/24 07:20:31;;;;;;;15.73;14.15;;;;;;;-146.58;100.00;69501.63;5031185;28;20017;-66
2023/06/24 07:22:57;;;;;;;19.63;14.55;;;;;;;-146.58;100.00;69501.63;5029464;28;20151;-65
2023/06/24 07:25:22;;;;;;;19.13;15.52;;;;;;;-146.58;100.00;69501.63;5031678;28;20026;-66
2023/06/24 07:27:47;;;;;;;19.60;15.55;;;;;;;-146.58;100.00;69501.63;5031046;28;20030;-66
2023/06/24 07:30:13;;;;;;;15.32;13.43;;;;;;;-146.58;100.00;69501.63;5029580;28;20408;-66
2023/06/24 07:32:38;;;;;;;20.10;13.35;;;;;;;-146.58;100.00;69501.63;5031617;28;20029;-66
2023/06/24 07:35:04;;;;;;;18.48;16.45;;;;;;;-146.58;100.00;69501.63;5029748;28;20305;-66
2023/06/24 07:37:29;;;;;;;22.85;15.10;;;;;;;-146.58;100.00;69501.63;5030942;28;20485;-66
2023/06/24 07:39:55;;;;;;;19.83;16.15;;;;;;;-146.58;100.00;69501.63;5029643;28;20037;-66
2023/06/24 07:42:20;;;;;;;21.60;14.30;;;;;;;-146.58;100.00;69501.63;5031504;28;20022;-66
2023/06/24 07:44:46;;;;;;;28.38;15.57;;;;;;;-146.58;100.00;69501.63;5028640;28;20037;-65
2023/06/24 07:47:11;;;;;;;26.25;15.20;;;;;;;-146.58;100.00;69501.63;5031412;28;20028;-67
2023/06/24 07:49:37;;;;;;;16.88;14.98;;;;;;;-146.58;100.00;69501.63;5029722;28;20057;-66
2023/06/24 07:52:02;;;;;;;21.27;15.70;;;;;;;-146.58;100.00;69501.63;5030563;28;20408;-66
2023/06/24 07:54:28;;;;;;;17.20;15.45;;;;;;;-146.58;100.00;69501.63;5029769;28;20045;-67
2023/06/24 07:56:53;;;;;;;24.13;16.25;;;;;;;-146.58;100.00;69501.63;5030696;28;20048;-66
2023/06/24 07:59:18;;;;;;;21.15;15.85;;;;;;;-146.58;100.00;69501.63;5029211;28;20091;-66
2023/06/24 08:01:44;;;;;;;21.45;16.98;;;;;;;-146.58;100.00;69501.63;5031158;28;20476;-66
2023/06/24 08:04:09;;;;;;;18.98;15.73;;;;;;;-146.58;100.00;69501.63;5029064;28;20041;-66
2023/06/24 08:06:34;;;;;;;17.83;14.40;;;;;;;-146.58;100.00;69501.63;5030611;28;20502;-66
2023/06/24 08:09:00;;;;;;;17.83;15.30;;;;;;;-146.58;100.00;69501.63;5029225;28;20044;-66
2023/06/24 08:11:25;;;;;;;23.60;16.33;;;;;;;-146.58;100.00;69501.63;5030440;28;20036;-66
2023/06/24 08:13:50;;;;;;;18.33;15.88;;;;;;;-146.58;100.00;69501.63;5028283;28;20043;-66
2023/06/24 08:16:18;;;;;;;17.38;15.60;;;;;;;-146.58;100.00;69501.63;5030589;28;20033;-67
2023/06/24 08:18:44;;;;;;;;;;;;;;;-146.58;100.00;69501.63;5029354;28;20049;-66
2023/06/24 08:21:09;;;;;;;38.47;17.77;;;;;;;-146.58;100.00;69501.63;5030058;28;19909;-66
2023/06/24 08:23:34;;;;;;;24.60;17.90;;;;;;;-146.58;100.00;69501.63;5029264;28;20124;-66
2023/06/24 08:26:00;;;;;;;17.20;15.43;;;;;;;-146.58;100.00;69501.63;5030190;28;20030;-66
2023/06/24 08:28:25;;;;;;;16.88;15.10;;;;;;;-146.58;100.00;69501.63;5028507;28;20041;-65
2023/06/24 08:30:50;;;;;;;22.38;14.93;;;;;;;-146.58;100.00;69501.63;5030512;28;20538;-66
2023/06/24 08:33:16;;;;;;;19.98;17.05;;;;;;;-146.58;100.00;69501.63;5029231;28;20103;-66
2023/06/24 08:35:41;;;;;;;19.55;15.98;;;;;;;-146.58;100.00;69501.63;5030102;28;20022;-66
2023/06/24 08:38:06;;;;;;;21.20;14.73;;;;;;;-146.58;100.00;69501.63;5028779;28;20059;-66
2023/06/24 08:40:32;;;;;;;20.65;15.27;;;;;;;-146.58;100.00;69501.63;5030648;28;20014;-66
2023/06/24 08:42:58;;;;;;;17.33;14.35;;;;;;;-146.58;100.00;69501.63;5028483;28;20079;-67
2023/06/24 08:45:23;;;;;;;17.85;15.68;;;;;;;-146.58;100.00;69501.63;5030578;28;20013;-66
2023/06/24 08:47:50;;;;;;;19.88;15.40;;;;;;;-146.58;100.00;69501.63;5030047;28;20033;-67
2023/06/24 08:50:16;;;;;;;23.13;16.27;;;;;;;-146.58;100.00;69501.63;5028646;28;20037;-66
2023/06/24 08:52:44;;;;;;;14.88;13.43;;;;;;;-146.58;100.00;69501.63;5029120;28;20412;-67
2023/06/24 08:55:13;;;;;;;28.52;13.52;;;;;;;-146.58;100.00;69501.63;5028883;28;20045;-66
2023/06/24 08:57:39;;;;;;;17.23;12.95;;;;;;;-146.58;100.00;69501.63;5033923;28;20014;-66
2023/06/24 09:00:09;;;;;;;16.38;13.52;;;;;;;-146.58;100.00;69501.63;5032875;28;20574;-66
2023/06/24 09:02:37;;;;;;;18.38;13.98;;;;;;;-146.58;100.00;69501.63;5034071;28;20412;-71
2023/06/24 09:05:06;;;;;;;22.10;13.55;;;;;;;-146.58;100.00;69501.63;5032452;28;20037;-66
2023/06/24 09:07:32;;;;;;;21.05;12.82;;;;;;;-146.58;100.00;69501.63;5034246;28;20040;-66
2023/06/24 09:09:57;;;;;;;17.55;13.02;;;;;;;-146.58;100.00;69501.63;5031872;28;20177;-67
2023/06/24 09:12:26;;;;;;;16.70;12.70;;;;;;;-146.58;100.00;69501.63;5033779;28;20032;-67
2023/06/24 09:14:51;;;;;;;14.52;13.02;;;;;;;-146.58;100.00;69501.63;5032390;28;20494;-67
2023/06/24 09:17:17;;;;;;;26.52;11.63;;;;;;;-146.58;100.00;69501.63;5033926;28;20165;-67
2023/06/24 09:19:43;;;;;;;19.10;14.50;;;;;;;-146.58;100.00;69501.63;5032240;28;20042;-66
2023/06/24 09:22:16;;;;;;;16.23;12.80;;;;;;;-146.58;100.00;69501.63;5033914;28;20037;-66
2023/06/24 09:24:41;;;;;;;25.13;11.20;;;;;;;-146.58;100.00;69501.63;5032570;28;20051;-67
2023/06/24 09:27:07;;;;;;;13.75;11.25;;;;;;;-146.58;100.00;69501.63;5033371;28;20021;-67
2023/06/24 09:29:35;;;;;;;24.27;11.80;;;;;;;-146.58;100.00;69501.63;5032396;28;20037;-67
2023/06/24 09:32:04;;;;;;;10.50;9.27;;;;;;;-146.58;100.00;69501.63;5033558;28;20021;-67
2023/06/24 09:34:30;;;;;;;10.23;9.02;;;;;;;-146.58;100.00;69501.63;5031878;28;20125;-66
2023/06/24 09:36:57;;;;;;;10.55;7.75;;;;;;;-146.58;100.00;69501.63;5033481;28;20021;-67
2023/06/24 09:39:29;;;;;;;8.63;7.72;;;;;;;-146.58;100.00;69501.63;5029207;28;20041;-67
2023/06/24 09:41:59;;;;;;;8.23;6.80;;;;;;;-146.58;100.00;69501.63;5032772;28;20025;-67
2023/06/24 09:44:25;;;;;;;13.55;5.95;;;;;;;-146.58;100.00;69501.63;5031960;28;20041;-67
2023/06/24 09:46:52;;;;;;;9.45;6.63;;;;;;;-146.58;100.00;69501.63;5032910;28;20026;-70
2023/06/24 09:49:18;;;;;;;8.48;5.63;;;;;;;-146.58;100.00;69501.63;5031374;28;20049;-67
2023/06/24 09:51:55;;;;;;;9.07;7.00;;;;;;;-146.58;100.00;69501.63;5032584;28;20033;-67
2023/06/24 09:54:21;;;;;;;10.63;5.67;;;;;;;-146.58;100.00;69501.63;5032115;28;20038;-66
2023/06/24 09:56:49;;;;;;;4.72;4.30;;;;;;;-146.58;100.00;69501.63;5032606;28;20474;-66
2023/06/24 09:59:15;;;;;;;3.75;3.35;;;;;;;-146.58;100.00;69501.63;5032028;28;20049;-67
2023/06/24 10:01:43;;;;;;;5.00;4.22;;;;;;;-146.58;100.00;69501.63;5033053;28;20029;-66
2023/06/24 10:04:10;;;;;;;5.35;3.92;;;;;;;-146.58;100.00;69501.63;5031129;28;20041;-67
2023/06/24 10:06:35;;;;;;;5.15;4.15;;;;;;;-146.58;100.00;69501.63;5032819;28;20029;-67
2023/06/24 10:09:01;;;;;;;5.18;4.68;;;;;;;-146.58;100.00;69501.63;5031586;28;20038;-66
2023/06/24 10:11:27;;;;;;;6.90;4.60;;;;;;;-146.58;100.00;69501.63;5018942;28;20385;-66
2023/06/24 10:13:53;;;;;;;9.20;6.35;;;;;;;-146.58;100.00;69501.63;5011627;28;20038;-67
2023/06/24 10:16:19;;;;;;;7.85;5.13;;;;;;;-146.58;100.00;69501.63;5021654;28;20071;-67
2023/06/24 10:18:45;;;;;;;7.05;5.75;;;;;;;-146.58;100.00;69501.63;5029564;28;20053;-66
2023/06/24 10:21:11;;;;;;;10.65;7.72;;;;;;;-146.58;100.00;69501.63;5032346;28;20026;-68
2023/06/24 10:23:40;;;;;;;9.05;5.97;;;;;;;-146.58;100.00;69501.63;5030938;28;20488;-66
2023/06/24 10:26:24;;;;;;;8.55;6.90;;;;;;;-146.58;100.00;69501.63;5031886;28;20029;-68
2023/06/24 10:29:05;;;;;;;6.43;4.40;;;;;;;-146.58;100.00;69501.63;5031104;28;20034;-66
2023/06/24 10:31:39;;;;;;;7.75;3.90;;;;;;;-146.58;100.00;69501.63;5033019;28;20045;-66
2023/06/24 10:34:24;;;;;;;7.28;4.57;;;;;;;-146.58;100.00;69501.63;5030014;28;20041;-66
2023/06/24 10:37:08;;;;;;;6.30;4.38;;;;;;;-146.58;100.00;69501.63;5032048;28;20022;-66
2023/06/24 10:40:00;;;;;;;9.02;5.95;;;;;;;-146.58;100.00;69501.63;5031149;28;20044;-66
2023/06/24 10:42:28;;;;;;;8.38;4.97;;;;;;;-146.58;100.00;69501.63;5032704;28;20022;-66
2023/06/24 10:44:59;;;;;;;7.57;4.30;;;;;;;-146.58;100.00;69501.63;5029908;28;20061;-66
2023/06/24 10:47:26;;;;;;;5.28;4.68;;;;;;;-146.58;100.00;69501.63;5032720;28;20069;-66
2023/06/24 10:49:52;;;;;;;6.03;4.85;;;;;;;-146.58;100.00;69501.63;5030193;28;20041;-65
2023/06/24 10:52:22;;;;;;;8.50;5.20;;;;;;;-146.58;100.00;69501.63;5032862;28;20087;-66
2023/06/24 10:54:48;;;;;;;7.13;4.93;;;;;;;-146.58;100.00;69501.63;5029178;28;20037;-66
2023/06/24 10:57:14;;;;;;;10.07;5.47;;;;;;;-146.58;100.00;69501.63;5032152;28;20032;-66